EWG2PC LIRF-EDDS
Flight info
| Callsign | EWG2PC |
|---|---|
| Flight time | 1h 15m |
| Altitude | 36000 |
| Route | SOVAN DCT AMTEL DCT LOMED DCT IPLUB DCT LUPOS DCT RIPDU DCT IVLOX DCT OSBUL DCT MISPO DCT TZO DCT ABESI N851 UTAVO DCT SOPER N851 ROMIR T125 REUTL REUTL1W |
| Aircraft | A320/M-SDE3FGHIRWY/LB1 |
Departure
| Time | 2026-05-04 20:35 |
|---|---|
| Airport | Rome–Fiumicino Leonardo da Vinci International Airport (LIRF) |
Arrival
| Time | 2026-05-04 21:50 |
|---|---|
| Airport | Stuttgart Airport (EDDS) |
| Time | Latitude | Longitude | Altitude | Speed | Heading |
|---|---|---|---|---|---|
| 2026-05-04 20:02 | 41.79569 | 12.25994 | 19 ft | 0 kts | 296° |
| 2026-05-04 20:22 | 41.79566 | 12.26003 | 21 ft | 2 kts | 296° |
| 2026-05-04 20:22 | 41.79561 | 12.26017 | 19 ft | 2 kts | 296° |
| 2026-05-04 20:23 | 41.79553 | 12.26038 | 21 ft | 3 kts | 304° |
| 2026-05-04 20:23 | 41.79543 | 12.26056 | 19 ft | 3 kts | 311° |
| 2026-05-04 20:23 | 41.79532 | 12.26069 | 21 ft | 0 kts | 339° |
| 2026-05-04 20:23 | 41.79537 | 12.26067 | 21 ft | 1 kts | 343° |
| 2026-05-04 20:24 | 41.79550 | 12.26070 | 21 ft | 0 kts | 23° |
| 2026-05-04 20:26 | 41.79557 | 12.26075 | 20 ft | 4 kts | 26° |
| 2026-05-04 20:26 | 41.79600 | 12.26103 | 19 ft | 10 kts | 26° |
| 2026-05-04 20:26 | 41.79681 | 12.26155 | 19 ft | 15 kts | 25° |
| 2026-05-04 20:27 | 41.79748 | 12.26115 | 21 ft | 12 kts | 302° |
| 2026-05-04 20:27 | 41.79789 | 12.25996 | 20 ft | 16 kts | 295° |
| 2026-05-04 20:27 | 41.79843 | 12.25845 | 23 ft | 15 kts | 297° |
| 2026-05-04 20:27 | 41.79890 | 12.25835 | 20 ft | 8 kts | 24° |
| 2026-05-04 20:28 | 41.79955 | 12.25874 | 19 ft | 12 kts | 24° |
| 2026-05-04 20:28 | 41.80049 | 12.25931 | 17 ft | 17 kts | 25° |
| 2026-05-04 20:28 | 41.80171 | 12.26008 | 17 ft | 22 kts | 25° |
| 2026-05-04 20:28 | 41.80304 | 12.26089 | 17 ft | 19 kts | 25° |
| 2026-05-04 20:29 | 41.80376 | 12.26135 | 15 ft | 3 kts | 25° |
| 2026-05-04 20:29 | 41.80383 | 12.26139 | 15 ft | 5 kts | 25° |
| 2026-05-04 20:29 | 41.80425 | 12.26164 | 15 ft | 9 kts | 24° |
| 2026-05-04 20:29 | 41.80500 | 12.26201 | 14 ft | 14 kts | 33° |
| 2026-05-04 20:30 | 41.80551 | 12.26317 | 17 ft | 16 kts | 67° |
| 2026-05-04 20:30 | 41.80591 | 12.26469 | 17 ft | 19 kts | 71° |
| 2026-05-04 20:30 | 41.80640 | 12.26645 | 15 ft | 21 kts | 70° |
| 2026-05-04 20:30 | 41.80689 | 12.26824 | 12 ft | 19 kts | 70° |
| 2026-05-04 20:31 | 41.80721 | 12.26949 | 11 ft | 12 kts | 71° |
| 2026-05-04 20:31 | 41.80777 | 12.27043 | 10 ft | 15 kts | 13° |
| 2026-05-04 20:31 | 41.80872 | 12.27008 | 10 ft | 0 kts | 339° |
| 2026-05-04 20:32 | 41.80886 | 12.27001 | 10 ft | 4 kts | 338° |
| 2026-05-04 20:32 | 41.80927 | 12.26979 | 11 ft | 8 kts | 338° |
| 2026-05-04 20:32 | 41.80956 | 12.26908 | 12 ft | 11 kts | 251° |
| 2026-05-04 20:32 | 41.80948 | 12.26884 | 14 ft | 0 kts | 248° |
| 2026-05-04 20:34 | 41.80945 | 12.26874 | 13 ft | 3 kts | 248° |
| 2026-05-04 20:34 | 41.80880 | 12.26646 | 12 ft | 62 kts | 249° |
| 2026-05-04 20:34 | 41.80653 | 12.25825 | 17 ft | 123 kts | 249° |
| 2026-05-04 20:34 | 41.80302 | 12.24545 | 29 ft | 166 kts | 248° |
| 2026-05-04 20:35 | 41.79913 | 12.23075 | 559 ft | 170 kts | 248° |
| 2026-05-04 20:35 | 41.79508 | 12.21559 | 1213 ft | 177 kts | 246° |
| 2026-05-04 20:35 | 41.79300 | 12.19935 | 1893 ft | 180 kts | 274° |
| 2026-05-04 20:35 | 41.79687 | 12.18296 | 2358 ft | 196 kts | 297° |
| 2026-05-04 20:36 | 41.80757 | 12.16997 | 2590 ft | 225 kts | 336° |
| 2026-05-04 20:36 | 41.82331 | 12.16369 | 2914 ft | 249 kts | 345° |
| 2026-05-04 20:36 | 41.84070 | 12.15773 | 3397 ft | 270 kts | 345° |
| 2026-05-04 20:36 | 41.85950 | 12.15140 | 3954 ft | 279 kts | 345° |
| 2026-05-04 20:37 | 41.87839 | 12.14507 | 4068 ft | 280 kts | 345° |
| 2026-05-04 20:37 | 41.89711 | 12.13874 | 4548 ft | 282 kts | 345° |
| 2026-05-04 20:37 | 41.91614 | 12.13221 | 5519 ft | 284 kts | 345° |
| 2026-05-04 20:37 | 41.93541 | 12.12556 | 6440 ft | 287 kts | 344° |
| 2026-05-04 20:38 | 41.95488 | 12.11880 | 7318 ft | 290 kts | 344° |
| 2026-05-04 20:38 | 41.97451 | 12.11195 | 8190 ft | 293 kts | 344° |
| 2026-05-04 20:38 | 41.99433 | 12.10504 | 9077 ft | 295 kts | 344° |
| 2026-05-04 20:38 | 42.01432 | 12.09808 | 9952 ft | 297 kts | 344° |
| 2026-05-04 20:39 | 42.03464 | 12.09100 | 10532 ft | 310 kts | 343° |
| 2026-05-04 20:39 | 42.05621 | 12.08344 | 10791 ft | 330 kts | 343° |
| 2026-05-04 20:39 | 42.07879 | 12.07553 | 11367 ft | 338 kts | 343° |
| 2026-05-04 20:39 | 42.10160 | 12.06755 | 12082 ft | 341 kts | 343° |
| 2026-05-04 20:40 | 42.12437 | 12.05960 | 12816 ft | 343 kts | 343° |
| 2026-05-04 20:40 | 42.14754 | 12.05153 | 13573 ft | 345 kts | 343° |
| 2026-05-04 20:40 | 42.17086 | 12.04341 | 14270 ft | 347 kts | 343° |
| 2026-05-04 20:40 | 42.19469 | 12.03654 | 14884 ft | 352 kts | 348° |
| 2026-05-04 20:41 | 42.21916 | 12.03113 | 15491 ft | 356 kts | 347° |
| 2026-05-04 20:41 | 42.24346 | 12.02571 | 16073 ft | 360 kts | 347° |
| 2026-05-04 20:41 | 42.26833 | 12.02012 | 16660 ft | 364 kts | 347° |
| 2026-05-04 20:41 | 42.29346 | 12.01443 | 17247 ft | 368 kts | 347° |
| 2026-05-04 20:42 | 42.31877 | 12.00868 | 17836 ft | 372 kts | 347° |
| 2026-05-04 20:42 | 42.34448 | 12.00285 | 18427 ft | 376 kts | 347° |
| 2026-05-04 20:42 | 42.37043 | 11.99702 | 18951 ft | 379 kts | 347° |
| 2026-05-04 20:42 | 42.39654 | 11.99115 | 19506 ft | 383 kts | 347° |
| 2026-05-04 20:43 | 42.42295 | 11.98521 | 20064 ft | 386 kts | 347° |
| 2026-05-04 20:43 | 42.44950 | 11.97921 | 20632 ft | 389 kts | 347° |
| 2026-05-04 20:43 | 42.47628 | 11.97315 | 21177 ft | 392 kts | 347° |
| 2026-05-04 20:43 | 42.50325 | 11.96705 | 21711 ft | 395 kts | 347° |
| 2026-05-04 20:44 | 42.53043 | 11.96088 | 22237 ft | 398 kts | 347° |
| 2026-05-04 20:44 | 42.55788 | 11.95466 | 22755 ft | 401 kts | 348° |
| 2026-05-04 20:44 | 42.58553 | 11.94841 | 23268 ft | 404 kts | 348° |
| 2026-05-04 20:44 | 42.61333 | 11.94210 | 23778 ft | 408 kts | 348° |
| 2026-05-04 20:45 | 42.64146 | 11.93570 | 24053 ft | 410 kts | 347° |
| 2026-05-04 20:45 | 42.66922 | 11.92940 | 24125 ft | 409 kts | 347° |
| 2026-05-04 20:45 | 42.69729 | 11.92303 | 24140 ft | 409 kts | 348° |
| 2026-05-04 20:45 | 42.72542 | 11.91668 | 24143 ft | 409 kts | 348° |
| 2026-05-04 20:46 | 42.75349 | 11.91032 | 24142 ft | 409 kts | 347° |
| 2026-05-04 20:46 | 42.78155 | 11.90393 | 24144 ft | 409 kts | 347° |
| 2026-05-04 20:46 | 42.80968 | 11.89748 | 24142 ft | 409 kts | 346° |
| 2026-05-04 20:46 | 42.83702 | 11.88744 | 24138 ft | 406 kts | 336° |
| 2026-05-04 20:47 | 42.86260 | 11.87147 | 24141 ft | 403 kts | 328° |
| 2026-05-04 20:47 | 42.88725 | 11.85333 | 24141 ft | 403 kts | 329° |
| 2026-05-04 20:47 | 42.91199 | 11.83522 | 24141 ft | 403 kts | 329° |
| 2026-05-04 20:47 | 42.93672 | 11.81713 | 24136 ft | 404 kts | 329° |
| 2026-05-04 20:48 | 42.96147 | 11.79903 | 24138 ft | 404 kts | 329° |
| 2026-05-04 20:48 | 42.98628 | 11.78086 | 24136 ft | 404 kts | 329° |
| 2026-05-04 20:48 | 43.01107 | 11.76267 | 24134 ft | 405 kts | 329° |
| 2026-05-04 20:48 | 43.03587 | 11.74451 | 24137 ft | 405 kts | 329° |
| 2026-05-04 20:49 | 43.06075 | 11.72626 | 24134 ft | 406 kts | 329° |
| 2026-05-04 20:49 | 43.08562 | 11.70798 | 24135 ft | 406 kts | 329° |
| 2026-05-04 20:49 | 43.11058 | 11.68962 | 24132 ft | 407 kts | 329° |
| 2026-05-04 20:49 | 43.13518 | 11.67149 | 24130 ft | 407 kts | 329° |
| 2026-05-04 20:50 | 43.16008 | 11.65311 | 24134 ft | 407 kts | 329° |
| 2026-05-04 20:50 | 43.18501 | 11.63469 | 24130 ft | 407 kts | 329° |
| 2026-05-04 20:50 | 43.20991 | 11.61628 | 24129 ft | 407 kts | 329° |
| 2026-05-04 20:50 | 43.23483 | 11.59785 | 24129 ft | 407 kts | 329° |
| 2026-05-04 20:51 | 43.25974 | 11.57944 | 24129 ft | 407 kts | 329° |
| 2026-05-04 20:51 | 43.28470 | 11.56101 | 24132 ft | 407 kts | 329° |
| 2026-05-04 20:51 | 43.30969 | 11.54255 | 24127 ft | 408 kts | 329° |
| 2026-05-04 20:51 | 43.33465 | 11.52407 | 24135 ft | 408 kts | 329° |
| 2026-05-04 20:52 | 43.35963 | 11.50552 | 24135 ft | 408 kts | 329° |
| 2026-05-04 20:52 | 43.38461 | 11.48696 | 24132 ft | 408 kts | 329° |
| 2026-05-04 20:52 | 43.40960 | 11.46838 | 24124 ft | 408 kts | 329° |
| 2026-05-04 20:52 | 43.43456 | 11.44977 | 24132 ft | 408 kts | 329° |
| 2026-05-04 20:53 | 43.45954 | 11.43112 | 24128 ft | 408 kts | 329° |
| 2026-05-04 20:53 | 43.48448 | 11.41249 | 24127 ft | 408 kts | 329° |
| 2026-05-04 20:53 | 43.50948 | 11.39385 | 24120 ft | 408 kts | 329° |
| 2026-05-04 20:53 | 43.53414 | 11.37544 | 24124 ft | 408 kts | 329° |
| 2026-05-04 20:54 | 43.55939 | 11.35653 | 24123 ft | 408 kts | 329° |
| 2026-05-04 20:54 | 43.58437 | 11.33785 | 24116 ft | 408 kts | 329° |
| 2026-05-04 20:54 | 43.60902 | 11.31941 | 24115 ft | 408 kts | 329° |
| 2026-05-04 20:54 | 43.63433 | 11.30046 | 24115 ft | 408 kts | 329° |
| 2026-05-04 20:55 | 43.65908 | 11.28188 | 24372 ft | 412 kts | 329° |
| 2026-05-04 20:55 | 43.68429 | 11.26292 | 24883 ft | 413 kts | 328° |
| 2026-05-04 20:55 | 43.70954 | 11.24389 | 25366 ft | 414 kts | 328° |
| 2026-05-04 20:55 | 43.73484 | 11.22477 | 25834 ft | 415 kts | 328° |
| 2026-05-04 20:56 | 43.76024 | 11.20562 | 26287 ft | 416 kts | 328° |
| 2026-05-04 20:56 | 43.78573 | 11.18641 | 26726 ft | 418 kts | 328° |
| 2026-05-04 20:56 | 43.81130 | 11.16716 | 27151 ft | 419 kts | 328° |
| 2026-05-04 20:56 | 43.83701 | 11.14781 | 27568 ft | 421 kts | 328° |
| 2026-05-04 20:57 | 43.86282 | 11.12833 | 27983 ft | 422 kts | 327° |
| 2026-05-04 20:57 | 43.88863 | 11.10880 | 28412 ft | 424 kts | 327° |
| 2026-05-04 20:57 | 43.91452 | 11.08912 | 28848 ft | 425 kts | 327° |
| 2026-05-04 20:57 | 43.94055 | 11.06932 | 29262 ft | 427 kts | 327° |
| 2026-05-04 20:58 | 43.96665 | 11.04948 | 29665 ft | 429 kts | 327° |
| 2026-05-04 20:58 | 43.99285 | 11.02952 | 30078 ft | 431 kts | 327° |
| 2026-05-04 20:58 | 44.01920 | 11.00944 | 30434 ft | 433 kts | 327° |
| 2026-05-04 20:58 | 44.04545 | 10.98880 | 30766 ft | 433 kts | 324° |
| 2026-05-04 20:59 | 44.07124 | 10.96700 | 31092 ft | 434 kts | 323° |
| 2026-05-04 20:59 | 44.09676 | 10.94440 | 31454 ft | 434 kts | 322° |
| 2026-05-04 20:59 | 44.12200 | 10.92155 | 31940 ft | 432 kts | 322° |
| 2026-05-04 20:59 | 44.14711 | 10.89874 | 32425 ft | 430 kts | 321° |
| 2026-05-04 21:00 | 44.17219 | 10.87615 | 32894 ft | 428 kts | 322° |
| 2026-05-04 21:00 | 44.19720 | 10.85385 | 33354 ft | 427 kts | 321° |
| 2026-05-04 21:00 | 44.22225 | 10.83170 | 33804 ft | 425 kts | 322° |
| 2026-05-04 21:00 | 44.24725 | 10.80973 | 34256 ft | 424 kts | 321° |
| 2026-05-04 21:01 | 44.27222 | 10.78785 | 34632 ft | 423 kts | 322° |
| 2026-05-04 21:01 | 44.29711 | 10.76598 | 34966 ft | 422 kts | 322° |
| 2026-05-04 21:01 | 44.32190 | 10.74411 | 35310 ft | 421 kts | 322° |
| 2026-05-04 21:01 | 44.34664 | 10.72218 | 35643 ft | 421 kts | 321° |
| 2026-05-04 21:02 | 44.37131 | 10.70027 | 35967 ft | 420 kts | 321° |
| 2026-05-04 21:02 | 44.39561 | 10.67865 | 36154 ft | 420 kts | 322° |
| 2026-05-04 21:02 | 44.44487 | 10.63486 | 36184 ft | 418 kts | 322° |
| 2026-05-04 21:03 | 44.49394 | 10.59112 | 36165 ft | 418 kts | 322° |
| 2026-05-04 21:03 | 44.54299 | 10.54713 | 36147 ft | 418 kts | 322° |
| 2026-05-04 21:04 | 44.59201 | 10.50286 | 36116 ft | 419 kts | 321° |
| 2026-05-04 21:04 | 44.64094 | 10.45851 | 36098 ft | 419 kts | 321° |
| 2026-05-04 21:05 | 44.68989 | 10.41394 | 36086 ft | 420 kts | 321° |
| 2026-05-04 21:05 | 44.73893 | 10.36922 | 36074 ft | 420 kts | 322° |
| 2026-05-04 21:06 | 44.78772 | 10.32476 | 36073 ft | 420 kts | 322° |
| 2026-05-04 21:06 | 44.83660 | 10.27955 | 36074 ft | 420 kts | 320° |
| 2026-05-04 21:07 | 44.88368 | 10.23092 | 36074 ft | 419 kts | 317° |
| 2026-05-04 21:07 | 44.92980 | 10.18082 | 36096 ft | 419 kts | 317° |
| 2026-05-04 21:08 | 44.96838 | 10.13926 | 36093 ft | 419 kts | 318° |
| 2026-05-04 21:08 | 45.01506 | 10.08968 | 36086 ft | 420 kts | 318° |
| 2026-05-04 21:09 | 45.06949 | 10.03212 | 36077 ft | 420 kts | 318° |
| 2026-05-04 21:09 | 45.10850 | 9.99084 | 36067 ft | 421 kts | 319° |
| 2026-05-04 21:10 | 45.15538 | 9.94111 | 36068 ft | 422 kts | 318° |
| 2026-05-04 21:10 | 45.20227 | 9.89110 | 36064 ft | 422 kts | 318° |
| 2026-05-04 21:11 | 45.24924 | 9.84091 | 36067 ft | 423 kts | 318° |
| 2026-05-04 21:11 | 45.29635 | 9.79053 | 36084 ft | 424 kts | 319° |
| 2026-05-04 21:12 | 45.34351 | 9.74003 | 36118 ft | 425 kts | 319° |
| 2026-05-04 21:12 | 45.39069 | 9.68935 | 36147 ft | 426 kts | 319° |
| 2026-05-04 21:13 | 45.43795 | 9.63838 | 36177 ft | 426 kts | 319° |
| 2026-05-04 21:13 | 45.48522 | 9.58724 | 36204 ft | 427 kts | 318° |
| 2026-05-04 21:14 | 45.53257 | 9.53591 | 36206 ft | 428 kts | 319° |
| 2026-05-04 21:14 | 45.58245 | 9.48903 | 36210 ft | 433 kts | 328° |
| 2026-05-04 21:15 | 45.63561 | 9.44845 | 36208 ft | 434 kts | 328° |
| 2026-05-04 21:15 | 45.68856 | 9.40804 | 36178 ft | 434 kts | 328° |
| 2026-05-04 21:16 | 45.74188 | 9.36718 | 36151 ft | 435 kts | 328° |
| 2026-05-04 21:16 | 45.79516 | 9.32611 | 36120 ft | 435 kts | 328° |
| 2026-05-04 21:17 | 45.84855 | 9.28495 | 36090 ft | 436 kts | 328° |
| 2026-05-04 21:17 | 45.90192 | 9.24355 | 36099 ft | 436 kts | 328° |
| 2026-05-04 21:18 | 45.95537 | 9.20213 | 36107 ft | 436 kts | 328° |
| 2026-05-04 21:18 | 46.00880 | 9.16061 | 36119 ft | 437 kts | 328° |
| 2026-05-04 21:19 | 46.06223 | 9.11905 | 36119 ft | 437 kts | 328° |
| 2026-05-04 21:19 | 46.11571 | 9.07728 | 36094 ft | 437 kts | 328° |
| 2026-05-04 21:20 | 46.17215 | 9.04390 | 36091 ft | 444 kts | 344° |
| 2026-05-04 21:20 | 46.23347 | 9.03301 | 36087 ft | 448 kts | 352° |
| 2026-05-04 21:21 | 46.29559 | 9.02471 | 36091 ft | 449 kts | 351° |
| 2026-05-04 21:21 | 46.35780 | 9.01639 | 36092 ft | 449 kts | 351° |
| 2026-05-04 21:22 | 46.42005 | 9.00801 | 36091 ft | 449 kts | 351° |
| 2026-05-04 21:22 | 46.48231 | 8.99963 | 36093 ft | 449 kts | 351° |
| 2026-05-04 21:23 | 46.54457 | 8.99122 | 36090 ft | 450 kts | 351° |
| 2026-05-04 21:23 | 46.60693 | 8.98277 | 36086 ft | 450 kts | 351° |
| 2026-05-04 21:24 | 46.66919 | 8.97436 | 36076 ft | 449 kts | 351° |
| 2026-05-04 21:24 | 46.73146 | 8.96596 | 36071 ft | 450 kts | 351° |
| 2026-05-04 21:25 | 46.79374 | 8.95751 | 36065 ft | 450 kts | 351° |
| 2026-05-04 21:25 | 46.85598 | 8.94897 | 36043 ft | 449 kts | 351° |
| 2026-05-04 21:26 | 46.91836 | 8.94042 | 36041 ft | 450 kts | 351° |
| 2026-05-04 21:26 | 46.97922 | 8.93216 | 36029 ft | 450 kts | 351° |
| 2026-05-04 21:27 | 47.04178 | 8.92356 | 36023 ft | 451 kts | 351° |
| 2026-05-04 21:27 | 47.10431 | 8.91488 | 36021 ft | 452 kts | 351° |
| 2026-05-04 21:28 | 47.16692 | 8.90626 | 36018 ft | 452 kts | 351° |
| 2026-05-04 21:28 | 47.19818 | 8.90194 | 35841 ft | 449 kts | 351° |
| 2026-05-04 21:28 | 47.22920 | 8.89766 | 35431 ft | 445 kts | 351° |
| 2026-05-04 21:29 | 47.25991 | 8.89359 | 35014 ft | 443 kts | 353° |
| 2026-05-04 21:29 | 47.29106 | 8.89476 | 34144 ft | 456 kts | 5° |
| 2026-05-04 21:29 | 47.32247 | 8.90546 | 33033 ft | 470 kts | 17° |
| 2026-05-04 21:29 | 47.35357 | 8.92168 | 32161 ft | 475 kts | 18° |
| 2026-05-04 21:30 | 47.38460 | 8.93790 | 31620 ft | 471 kts | 18° |
| 2026-05-04 21:30 | 47.41544 | 8.95394 | 31091 ft | 468 kts | 18° |
| 2026-05-04 21:30 | 47.44601 | 8.96973 | 30569 ft | 464 kts | 18° |
| 2026-05-04 21:30 | 47.47602 | 8.98516 | 30062 ft | 461 kts | 18° |
| 2026-05-04 21:31 | 47.53359 | 9.01474 | 28924 ft | 454 kts | 18° |
| 2026-05-04 21:31 | 47.56339 | 9.03008 | 28352 ft | 451 kts | 18° |
| 2026-05-04 21:31 | 47.59292 | 9.04528 | 27788 ft | 448 kts | 18° |
| 2026-05-04 21:32 | 47.62224 | 9.06043 | 27224 ft | 445 kts | 18° |
| 2026-05-04 21:32 | 47.65140 | 9.07558 | 26656 ft | 443 kts | 18° |
| 2026-05-04 21:32 | 47.68029 | 9.09163 | 26096 ft | 441 kts | 25° |
| 2026-05-04 21:32 | 47.70637 | 9.11522 | 25549 ft | 439 kts | 39° |
| 2026-05-04 21:33 | 47.72805 | 9.14682 | 25013 ft | 436 kts | 53° |
| 2026-05-04 21:33 | 47.74481 | 9.18397 | 24496 ft | 432 kts | 60° |
| 2026-05-04 21:33 | 47.76058 | 9.22200 | 23977 ft | 431 kts | 59° |
| 2026-05-04 21:33 | 47.77882 | 9.25732 | 23444 ft | 431 kts | 45° |
| 2026-05-04 21:34 | 47.80259 | 9.28409 | 22850 ft | 430 kts | 28° |
| 2026-05-04 21:34 | 47.82995 | 9.30010 | 22259 ft | 427 kts | 12° |
| 2026-05-04 21:34 | 47.85924 | 9.30532 | 21695 ft | 423 kts | 1° |
| 2026-05-04 21:34 | 47.88856 | 9.30747 | 21131 ft | 421 kts | 1° |
| 2026-05-04 21:35 | 47.91784 | 9.30963 | 20577 ft | 420 kts | 1° |
| 2026-05-04 21:35 | 47.94704 | 9.31181 | 20011 ft | 419 kts | 1° |
| 2026-05-04 21:35 | 47.97614 | 9.31398 | 19455 ft | 419 kts | 1° |
| 2026-05-04 21:35 | 48.00517 | 9.31612 | 18914 ft | 418 kts | 1° |
| 2026-05-04 21:36 | 48.02702 | 9.31776 | 18498 ft | 417 kts | 1° |
| 2026-05-04 21:37 | 48.03851 | 9.31865 | 18277 ft | 416 kts | 1° |
| 2026-05-04 21:37 | 48.04981 | 9.31954 | 18035 ft | 416 kts | 1° |
| 2026-05-04 21:37 | 48.07865 | 9.32181 | 17410 ft | 414 kts | 1° |
| 2026-05-04 21:38 | 48.10739 | 9.32401 | 16732 ft | 413 kts | 1° |
| 2026-05-04 21:38 | 48.13569 | 9.32614 | 16134 ft | 411 kts | 1° |
| 2026-05-04 21:38 | 48.16457 | 9.32834 | 15478 ft | 410 kts | 1° |
| 2026-05-04 21:38 | 48.19258 | 9.33134 | 14856 ft | 409 kts | 3° |
| 2026-05-04 21:39 | 48.22086 | 9.33556 | 14220 ft | 403 kts | 5° |
| 2026-05-04 21:39 | 48.24811 | 9.34033 | 13582 ft | 384 kts | 5° |
| 2026-05-04 21:39 | 48.27409 | 9.34509 | 12896 ft | 369 kts | 5° |
| 2026-05-04 21:39 | 48.29911 | 9.34966 | 12223 ft | 356 kts | 5° |
| 2026-05-04 21:40 | 48.32339 | 9.35396 | 11565 ft | 346 kts | 5° |
| 2026-05-04 21:40 | 48.34684 | 9.35793 | 11014 ft | 335 kts | 5° |
| 2026-05-04 21:40 | 48.36956 | 9.36347 | 10499 ft | 325 kts | 16° |
| 2026-05-04 21:40 | 48.39033 | 9.37588 | 9988 ft | 317 kts | 24° |
| 2026-05-04 21:41 | 48.40998 | 9.38913 | 9461 ft | 312 kts | 24° |
| 2026-05-04 21:41 | 48.42998 | 9.40268 | 8905 ft | 317 kts | 24° |
| 2026-05-04 21:41 | 48.45012 | 9.41635 | 8554 ft | 315 kts | 24° |
| 2026-05-04 21:41 | 48.46988 | 9.42978 | 8313 ft | 309 kts | 24° |
| 2026-05-04 21:42 | 48.48933 | 9.44298 | 8090 ft | 303 kts | 24° |
| 2026-05-04 21:42 | 48.50840 | 9.45591 | 7859 ft | 298 kts | 24° |
| 2026-05-04 21:42 | 48.52720 | 9.46866 | 7630 ft | 293 kts | 24° |
| 2026-05-04 21:42 | 48.54545 | 9.48106 | 7412 ft | 290 kts | 25° |
| 2026-05-04 21:43 | 48.56383 | 9.49359 | 7184 ft | 289 kts | 25° |
| 2026-05-04 21:43 | 48.58237 | 9.50625 | 6960 ft | 288 kts | 25° |
| 2026-05-04 21:43 | 48.60028 | 9.51848 | 6738 ft | 286 kts | 25° |
| 2026-05-04 21:43 | 48.61839 | 9.53087 | 6503 ft | 284 kts | 24° |
| 2026-05-04 21:44 | 48.63640 | 9.54318 | 6296 ft | 283 kts | 24° |
| 2026-05-04 21:44 | 48.65424 | 9.55537 | 6064 ft | 281 kts | 25° |
| 2026-05-04 21:44 | 48.67221 | 9.56671 | 5848 ft | 279 kts | 17° |
| 2026-05-04 21:44 | 48.69120 | 9.57159 | 5604 ft | 275 kts | 1° |
| 2026-05-04 21:45 | 48.70987 | 9.56889 | 5377 ft | 263 kts | 346° |
| 2026-05-04 21:45 | 48.72700 | 9.56152 | 5150 ft | 249 kts | 342° |
| 2026-05-04 21:45 | 48.74121 | 9.54893 | 4934 ft | 234 kts | 309° |
| 2026-05-04 21:45 | 48.74675 | 9.52668 | 4707 ft | 227 kts | 268° |
| 2026-05-04 21:46 | 48.74394 | 9.50343 | 4479 ft | 223 kts | 255° |
| 2026-05-04 21:46 | 48.73980 | 9.48100 | 4251 ft | 219 kts | 254° |
| 2026-05-04 21:46 | 48.73535 | 9.45913 | 4051 ft | 215 kts | 251° |
| 2026-05-04 21:46 | 48.73073 | 9.43793 | 3799 ft | 208 kts | 253° |
| 2026-05-04 21:47 | 48.72666 | 9.41725 | 3558 ft | 201 kts | 255° |
| 2026-05-04 21:47 | 48.72295 | 9.39766 | 3286 ft | 185 kts | 256° |
| 2026-05-04 21:47 | 48.71966 | 9.38014 | 3050 ft | 167 kts | 256° |
| 2026-05-04 21:47 | 48.71657 | 9.36372 | 2836 ft | 158 kts | 257° |
| 2026-05-04 21:48 | 48.71367 | 9.34823 | 2642 ft | 148 kts | 257° |
| 2026-05-04 21:48 | 48.71090 | 9.33349 | 2447 ft | 145 kts | 257° |
| 2026-05-04 21:48 | 48.70817 | 9.31899 | 2245 ft | 142 kts | 256° |
| 2026-05-04 21:48 | 48.70546 | 9.30456 | 2051 ft | 142 kts | 256° |
| 2026-05-04 21:49 | 48.70276 | 9.29024 | 1864 ft | 141 kts | 255° |
| 2026-05-04 21:49 | 48.70009 | 9.27606 | 1679 ft | 140 kts | 255° |
| 2026-05-04 21:49 | 48.69742 | 9.26191 | 1485 ft | 139 kts | 255° |
| 2026-05-04 21:49 | 48.69475 | 9.24777 | 1305 ft | 139 kts | 255° |
| 2026-05-04 21:50 | 48.69231 | 9.23481 | 1289 ft | 109 kts | 254° |
| 2026-05-04 21:50 | 48.69069 | 9.22631 | 1285 ft | 59 kts | 254° |
| 2026-05-04 21:50 | 48.69004 | 9.22283 | 1288 ft | 10 kts | 254° |
| 2026-05-04 21:50 | 48.68994 | 9.22229 | 1288 ft | 10 kts | 254° |
| 2026-05-04 21:51 | 48.68965 | 9.22067 | 1286 ft | 22 kts | 255° |
| 2026-05-04 21:51 | 48.68945 | 9.21801 | 1285 ft | 27 kts | 273° |
| 2026-05-04 21:51 | 48.68981 | 9.21519 | 1289 ft | 28 kts | 286° |
| 2026-05-04 21:51 | 48.69029 | 9.21227 | 1285 ft | 29 kts | 284° |
| 2026-05-04 21:52 | 48.69006 | 9.20921 | 1285 ft | 31 kts | 253° |
| 2026-05-04 21:52 | 48.68949 | 9.20620 | 1285 ft | 27 kts | 253° |
| 2026-05-04 21:52 | 48.68895 | 9.20337 | 1287 ft | 29 kts | 253° |
| 2026-05-04 21:52 | 48.68840 | 9.20043 | 1287 ft | 24 kts | 255° |
| 2026-05-04 21:53 | 48.68825 | 9.19907 | 1285 ft | 10 kts | 298° |
| 2026-05-04 21:53 | 48.68890 | 9.19866 | 1285 ft | 7 kts | 346° |
| 2026-05-04 21:53 | 48.68930 | 9.19907 | 1285 ft | 9 kts | 60° |
| 2026-05-04 21:53 | 48.68956 | 9.19995 | 1286 ft | 8 kts | 103° |
| 2026-05-04 21:54 | 48.68905 | 9.20027 | 1285 ft | 0 kts | 166° |